• Join FlightAware (Why Join?)
  • Login
  • US Flag 
 
09:55AM EST


 

Airport Tracker/Info


-or-


 

Live Flight TrackerFlight Track Log ✈ FDX1409 ✈ 28-Mar-2014 ✈ KMEM - KMCO

Flight Track Log - Related Links

Times and Time Zones

All times are in EDT time to prevent confusion due to time zone crossing. See the FDX1409 flight status page for this flight to view local times or setup timezone preferences in your user account.

Time Position Orientation Groundspeed Altitude Reporting Facility
EDT Latitude Longitude Course Direction KTS MPH feet Rate Location/Type
04:36AM 35.0333 -89.9833 180° South 175 201 1,200  Level KMEM
04:37AM 34.9833 -89.9833 180° South 201 231 3,600 3,180 Climbing KMEM
04:38AM 34.9000 -89.9833 180° South 280 322 7,300 3,720 Climbing KMEM
04:39AM 34.8331 -89.9878 183° South 267 307 10,900 3,720 Climbing Memphis Center
04:40AM 34.7594 -89.9275 146° Southeast 322 371 14,500 2,880 Climbing Memphis Center
04:41AM 34.6864 -89.8383 135° Southeast 383 441 16,700 2,580 Climbing Memphis Center
04:42AM 34.6114 -89.7231 128° Southeast 434 499 19,800 3,000 Climbing Memphis Center
04:43AM 34.5319 -89.6008 128° Southeast 456 525 22,800 2,940 Climbing Memphis Center
04:44AM 34.4486 -89.4744 129° Southeast 472 543 25,800 2,700 Climbing Memphis Center
04:45AM 34.3650 -89.3458 128° Southeast 482 555 28,300 3,180 Climbing Memphis Center
04:46AM 34.2819 -89.2214 129° Southeast 482 555 32,200 3,000 Climbing Memphis Center
04:47AM 34.2025 -89.1033 129° Southeast 459 528 34,400 1,680 Climbing Memphis Center
04:48AM 34.1231 -88.9831 129° Southeast 459 528 35,700 1,020 Climbing Memphis Center
04:49AM 34.0417 -88.8614 129° Southeast 461 531 36,500 600 Climbing Memphis Center
04:50AM 33.9544 -88.7289 128° Southeast 475 547 37,000 240 Climbing Memphis Center
04:51AM 33.8686 -88.6028 129° Southeast 484 557 37,000  Level Memphis Center
04:52AM 33.7839 -88.4772 129° Southeast 486 559 37,000  Level Memphis Center
04:53AM 33.6994 -88.3525 129° Southeast 486 559 37,000  Level Memphis Center
04:54AM 33.6147 -88.2275 129° Southeast 486 559 37,000  Level Memphis Center
04:55AM 33.5297 -88.1042 130° Southeast 486 559 37,000  Level Memphis Center
04:56AM 33.4464 -87.9822 129° Southeast 482 555 37,000  Level Memphis Center
04:57AM 33.3611 -87.8589 130° Southeast 481 554 37,000  Level Memphis Center
04:58AM 33.2767 -87.7353 129° Southeast 482 555 37,000  Level Memphis Center
04:59AM 33.1914 -87.6117 129° Southeast 482 555 37,000  Level Memphis Center
05:00AM 33.1047 -87.4875 130° Southeast 486 559 37,000  Level Memphis Center
05:01AM 32.9994 -87.3361 130° Southeast 491 565 37,000  Level Memphis Center
05:02AM 32.9117 -87.2117 130° Southeast 493 567 37,000  Level Memphis Center
05:03AM 32.8225 -87.0858 130° Southeast 494 568 37,000  Level Memphis Center
05:04AM 32.7044 -86.9172 130° Southeast 495 570 37,000  Level Atlanta Center
05:05AM 32.6114 -86.7908 131° Southeast 495 570 37,000  Level Atlanta Center
05:06AM 32.5244 -86.6625 129° Southeast 495 570 37,000  Level Atlanta Center
05:07AM 32.4353 -86.5367 130° Southeast 495 570 37,000  Level Atlanta Center
05:08AM 32.3439 -86.4064 130° Southeast 500 575 37,100  Climbing Atlanta Center
05:09AM 32.2439 -86.2761 132° Southeast 523 602 37,000 -60 Descending Atlanta Center
05:10AM 32.1544 -86.1461 129° Southeast 523 602 37,000  Level Atlanta Center
05:12AM 31.9742 -85.9025 131° Southeast 563 648 37,000  Level Jacksonville Center
05:13AM 31.8792 -85.7744 131° Southeast 549 632 37,000  Level Jacksonville Center
05:15AM 31.7067 -85.5422 131° Southeast 538 619 37,000  Level Jacksonville Center
05:16AM 31.6092 -85.4125 131° Southeast 544 626 37,000  Level Jacksonville Center
05:17AM 31.5114 -85.2856 132° Southeast 539 620 37,000  Level Jacksonville Center
05:23AM 30.9545 -84.5451 132° Southeast 526 605 37,000  Level FlightAware ADS-B (KTLH)
05:24AM 30.8714 -84.4371 132° Southeast 526 605 37,000  Level FlightAware ADS-B (KTLH)
05:24AM 30.8031 -84.3486 132° Southeast 525 604 37,000  Level FlightAware ADS-B (KTLH)
05:25AM 30.7419 -84.2686 132° Southeast 526 605 37,000  Level FlightAware ADS-B (KTLH)
05:25AM 30.6899 -84.2010 132° Southeast 528 608 37,000  Level FlightAware ADS-B (KTLH)
05:26AM 30.6377 -84.1335 132° Southeast 528 608 37,000  Level FlightAware ADS-B (KTLH)
05:27AM 30.5719 -84.0492 132° Southeast 530 610 37,000  Level FlightAware ADS-B (KTLH)
05:27AM 30.5058 -83.9644 132° Southeast 533 613 37,000  Level FlightAware ADS-B (KTLH)
05:28AM 30.4564 -83.9008 132° Southeast 533 613 37,000 60 Level FlightAware ADS-B (KTLH)
05:28AM 30.4066 -83.8369 132° Southeast 534 615 37,100 60 Climbing FlightAware ADS-B (KTLH)
05:29AM 30.3411 -83.7523 132° Southeast 533 613 37,100  Level FlightAware ADS-B (KTLH)
05:30AM 30.2766 -83.6700 132° Southeast 528 608 37,100 -120 Level FlightAware ADS-B (KTLH)
05:30AM 30.1997 -83.5721 132° Southeast 525 604 37,000 -180 Descending FlightAware ADS-B (KTLH)
05:31AM 30.1461 -83.5050 132° Southeast 521 600 36,900 -60 Descending Jacksonville Center
05:32AM 30.0483 -83.3819 133° Southeast 521 600 36,900  Level Jacksonville Center
05:33AM 29.9508 -83.2569 132° Southeast 521 600 37,000  Climbing Jacksonville Center
05:34AM 29.8467 -83.1297 133° Southeast 532 612 37,000 -1,260 Level Jacksonville Center
05:35AM 29.7486 -83.0050 132° Southeast 532 612 34,500 -2,520 Descending Jacksonville Center
05:36AM 29.6486 -82.8783 132° Southeast 527 606 32,000 -2,220 Descending Jacksonville Center
05:37AM 29.5503 -82.7589 133° Southeast 527 606 30,100 -2,340 Descending Jacksonville Center
05:38AM 29.4436 -82.6231 132° Southeast 528 608 27,400 -2,700 Descending Jacksonville Center
05:39AM 29.3536 -82.5114 133° Southeast 514 592 24,700 -2,700 Descending Jacksonville Center
05:40AM 29.2656 -82.4047 133° Southeast 484 557 22,100 -2,940 Descending Jacksonville Center
05:41AM 29.1836 -82.3028 133° Southeast 453 521 18,900 -2,760 Descending Jacksonville Center
05:42AM 29.1039 -82.2033 133° Southeast 431 496 16,600 -2,460 Descending Jacksonville Center
05:43AM 29.0303 -82.1136 133° Southeast 407 468 14,000 -2,400 Descending Jacksonville Center
05:44AM 28.9589 -82.0264 133° Southeast 390 449 11,800 -1,380 Descending Jacksonville Center
05:50AM 28.7245 -81.5097 113° Southeast 260 299 4,900 -1,260 Descending FlightAware ADS-B (KSFB)
05:50AM 28.7167 -81.4882 113° Southeast 257 296 4,300 -1,620 Descending FlightAware ADS-B (KSFB)
05:51AM 28.7084 -81.4662 113° Southeast 247 284 3,800 -780 Descending FlightAware ADS-B (KSFB)
05:51AM 28.6981 -81.4384 111° Southeast 244 281 3,800  Level FlightAware ADS-B (KSFB)
05:51AM 28.6902 -81.4153 112° Southeast 223 257 3,800  Level FlightAware ADS-B (KSFB)
05:52AM 28.6810 -81.3913 113° Southeast 229 264 3,800  Level FlightAware ADS-B (KSFB)
05:52AM 28.6732 -81.3702 113° Southeast 224 258 3,800  Level FlightAware ADS-B (KSFB)
05:52AM 28.6642 -81.3457 114° Southeast 218 251 3,800  Level FlightAware ADS-B (KSFB)
05:52AM 28.6603 -81.3376 123° Southeast 217 250 3,800 -420 Level FlightAware ADS-B (KSFB)
05:53AM 28.6441 -81.3252 169° South 211 243 3,600 -780 Descending FlightAware ADS-B (KSFB)
05:53AM 28.6241 -81.3251 183° South 204 235 3,300 -1,020 Descending FlightAware ADS-B (KSFB)
05:53AM 28.6105 -81.3252 179° South 201 231 3,000 -1,080 Descending FlightAware ADS-B (KSFB)
05:54AM 28.5920 -81.3246 180° South 191 220 2,700 -960 Descending FlightAware ADS-B (KSFB)
05:54AM 28.5825 -81.3246 180° South 182 209 2,400 -840 Descending FlightAware ADS-B (KSFB)
05:54AM 28.5607 -81.3244 180° South 174 200 2,100 -900 Descending FlightAware ADS-B (KSFB)
05:55AM 28.5424 -81.3241 179° South 168 193 1,800 -720 Descending FlightAware ADS-B (KSFB)
05:56AM 28.5000 -81.3167 179° South 133 153 1,200 -660 Descending Orlando TRACON
05:57AM 28.4667 -81.3167 180° South 134 154 500 -720 Descending Orlando TRACON